Time;durP1;ratioP1;P1;durP2;ratioP2;P2;SDS_P1;SDS_P2;PMS_P1;PMS_P2;Temp;Humidity;BMP_temperature;BMP_pressure;BME280_temperature;BME280_humidity;BME280_pressure;Samples;Min_cycle;Max_cycle;Signal;HPM_P1;HPM_P2
2021/04/28 00:01:41;;;;;;;490.88;280.27;;;;;;;;;;5048694;28;20043;-79
2021/04/28 00:04:08;;;;;;;489.88;288.73;;;;;;;;;;5048262;28;20024;-78
2021/04/28 00:06:35;;;;;;;493.00;286.40;;;;;;;;;;5048862;28;20031;-78
2021/04/28 00:09:03;;;;;;;496.92;287.10;;;;;;;;;;5047518;28;20037;-81
2021/04/28 00:11:29;;;;;;;490.02;282.27;;;;;;;;;;5060946;28;20193;-78
2021/04/28 00:13:55;;;;;;;488.45;278.92;;;;;;;;;;5062685;28;20483;-79
2021/04/28 00:16:21;;;;;;;496.58;291.00;;;;;;;;;;5047260;28;20665;-79
2021/04/28 00:18:48;;;;;;;492.52;284.08;;;;;;;;;;5047893;28;20040;-78
2021/04/28 00:21:14;;;;;;;493.30;282.08;;;;;;;;;;5048208;28;20029;-78
2021/04/28 00:23:41;;;;;;;504.17;294.63;;;;;;;;;;5049528;28;20048;-78
2021/04/28 00:26:08;;;;;;;493.80;282.83;;;;;;;;;;5047701;28;20033;-79
2021/04/28 00:28:34;;;;;;;496.17;283.10;;;;;;;;;;5059586;28;20045;-78
2021/04/28 00:31:00;;;;;;;501.20;280.15;;;;;;;;;;5060363;28;20025;-80
2021/04/28 00:33:26;;;;;;;506.50;279.40;;;;;;;;;;5048440;28;20112;-78
2021/04/28 00:35:52;;;;;;;512.20;291.92;;;;;;;;;;5047664;28;20029;-78
2021/04/28 00:38:18;;;;;;;509.60;289.73;;;;;;;;;;5048543;28;20070;-78
2021/04/28 00:40:44;;;;;;;513.30;284.63;;;;;;;;;;5048282;28;20673;-79
2021/04/28 00:43:10;;;;;;;503.05;278.52;;;;;;;;;;5061465;28;20536;-78
2021/04/28 00:45:36;;;;;;;504.10;286.65;;;;;;;;;;5047212;28;20026;-79
2021/04/28 00:48:05;;;;;;;506.65;289.02;;;;;;;;;;5060827;28;20048;-78
2021/04/28 00:50:32;;;;;;;501.77;276.75;;;;;;;;;;5047854;28;20032;-78
2021/04/28 00:52:58;;;;;;;496.98;270.55;;;;;;;;;;5047842;28;20029;-78
2021/04/28 00:55:25;;;;;;;503.40;276.60;;;;;;;;;;5063918;28;20435;-79
2021/04/28 00:57:51;;;;;;;502.83;278.27;;;;;;;;;;5045761;28;20551;-78
2021/04/28 01:00:18;;;;;;;489.60;278.10;;;;;;;;;;5048507;28;20039;-78
2021/04/28 01:02:44;;;;;;;487.73;268.83;;;;;;;;;;5048124;28;20063;-78
2021/04/28 01:05:11;;;;;;;495.80;273.83;;;;;;;;;;5047958;28;20139;-77
2021/04/28 01:07:37;;;;;;;489.35;267.33;;;;;;;;;;5061245;28;20040;-79
2021/04/28 01:10:08;;;;;;;489.45;262.70;;;;;;;;;;5046548;28;20480;-78
2021/04/28 01:12:34;;;;;;;;;;;;;;;;;;5047370;28;20118;-78
2021/04/28 01:15:01;;;;;;;490.42;254.13;;;;;;;;;;5046591;28;19948;-79
2021/04/28 01:17:27;;;;;;;492.73;261.30;;;;;;;;;;5046120;28;20059;-80
2021/04/28 01:19:53;;;;;;;495.00;263.52;;;;;;;;;;5047480;28;20025;-79
2021/04/28 01:22:20;;;;;;;503.52;274.35;;;;;;;;;;5046483;28;20036;-78
2021/04/28 01:24:49;;;;;;;501.65;274.25;;;;;;;;;;5046554;28;20033;-78
2021/04/28 01:27:19;;;;;;;500.27;262.48;;;;;;;;;;5046483;28;20032;-78
2021/04/28 01:29:46;;;;;;;509.90;278.02;;;;;;;;;;5046054;28;20128;-78
2021/04/28 01:32:14;;;;;;;495.13;267.20;;;;;;;;;;5046115;28;20037;-79
2021/04/28 01:34:41;;;;;;;497.23;269.08;;;;;;;;;;5047710;28;20021;-78
2021/04/28 01:37:07;;;;;;;491.85;266.58;;;;;;;;;;5046227;28;20035;-78
2021/04/28 01:39:34;;;;;;;494.45;269.40;;;;;;;;;;5046666;28;20163;-78
2021/04/28 01:42:00;;;;;;;490.65;268.88;;;;;;;;;;5045715;28;20021;-78
2021/04/28 01:44:26;;;;;;;497.88;269.23;;;;;;;;;;5047005;28;20481;-79
2021/04/28 01:46:55;;;;;;;495.17;266.17;;;;;;;;;;5047178;28;20041;-78
2021/04/28 01:49:21;;;;;;;496.65;269.50;;;;;;;;;;5046238;28;20055;-78
2021/04/28 01:51:47;;;;;;;494.15;268.58;;;;;;;;;;5046571;28;20114;-78
2021/04/28 01:54:18;;;;;;;494.90;269.00;;;;;;;;;;5045353;28;20020;-79
2021/04/28 01:56:47;;;;;;;516.75;286.52;;;;;;;;;;5046385;28;20044;-78
2021/04/28 01:59:16;;;;;;;491.90;261.13;;;;;;;;;;5046301;28;20025;-78
2021/04/28 02:01:46;;;;;;;491.95;260.90;;;;;;;;;;5045368;28;20029;-78
2021/04/28 02:04:12;;;;;;;505.33;271.38;;;;;;;;;;5047783;28;20032;-78
2021/04/28 02:06:39;;;;;;;487.15;261.27;;;;;;;;;;5046466;28;20470;-78
2021/04/28 02:09:06;;;;;;;485.42;261.73;;;;;;;;;;5046801;28;20132;-78
2021/04/28 02:11:32;;;;;;;492.15;263.30;;;;;;;;;;5043916;28;20095;-78
2021/04/28 02:13:59;;;;;;;488.90;263.73;;;;;;;;;;5060701;28;20036;-78
2021/04/28 02:16:25;;;;;;;487.13;254.02;;;;;;;;;;5062220;28;20086;-78
2021/04/28 02:18:52;;;;;;;488.65;256.90;;;;;;;;;;5045459;28;20694;-78
2021/04/28 02:21:18;;;;;;;490.23;263.00;;;;;;;;;;5046778;28;20362;-78
2021/04/28 02:23:44;;;;;;;488.38;261.50;;;;;;;;;;5046178;28;20013;-79
2021/04/28 02:26:10;;;;;;;483.20;248.93;;;;;;;;;;5046138;28;20022;-78
2021/04/28 02:28:36;;;;;;;486.40;258.85;;;;;;;;;;5044698;28;20433;-78
2021/04/28 02:31:02;;;;;;;490.25;262.08;;;;;;;;;;5046254;28;20028;-78
2021/04/28 02:33:29;;;;;;;494.35;261.15;;;;;;;;;;5046460;28;20115;-78
2021/04/28 02:35:56;;;;;;;487.95;257.30;;;;;;;;;;5046337;28;20028;-78
2021/04/28 02:38:28;;;;;;;486.58;252.48;;;;;;;;;;5045259;28;20056;-78
2021/04/28 02:40:54;;;;;;;484.10;256.02;;;;;;;;;;5062855;28;20061;-78
2021/04/28 02:43:21;;;;;;;483.75;263.35;;;;;;;;;;5046177;28;20036;-79
2021/04/28 02:45:48;;;;;;;482.45;259.35;;;;;;;;;;5046849;28;20046;-78
2021/04/28 02:48:14;;;;;;;478.05;253.32;;;;;;;;;;5047571;28;20047;-78
2021/04/28 02:50:40;;;;;;;485.05;261.08;;;;;;;;;;5049896;28;20128;-79
2021/04/28 02:53:07;;;;;;;481.50;251.60;;;;;;;;;;5049183;28;20029;-78
2021/04/28 02:55:34;;;;;;;473.58;249.27;;;;;;;;;;5046510;28;20025;-78
2021/04/28 02:58:00;;;;;;;474.80;254.23;;;;;;;;;;5045928;28;20140;-78
2021/04/28 03:00:27;;;;;;;479.75;254.60;;;;;;;;;;5045737;28;20024;-77
2021/04/28 03:02:53;;;;;;;485.27;252.00;;;;;;;;;;5045688;28;20075;-79
2021/04/28 03:05:21;;;;;;;486.05;255.00;;;;;;;;;;5044568;28;20025;-78
2021/04/28 03:07:47;;;;;;;489.75;253.65;;;;;;;;;;5044113;28;20083;-78
2021/04/28 03:10:14;;;;;;;486.05;246.82;;;;;;;;;;5045497;28;20674;-78
2021/04/28 03:12:40;;;;;;;492.58;254.35;;;;;;;;;;5044764;28;20120;-79
2021/04/28 03:15:07;;;;;;;492.85;257.05;;;;;;;;;;5045315;28;20037;-78
2021/04/28 03:17:33;;;;;;;491.05;250.43;;;;;;;;;;5065981;28;20029;-78
2021/04/28 03:20:00;;;;;;;494.52;259.30;;;;;;;;;;5049660;28;20378;-78
2021/04/28 03:22:26;;;;;;;492.75;252.45;;;;;;;;;;5049888;28;20028;-79
2021/04/28 03:24:52;;;;;;;491.27;260.48;;;;;;;;;;5050493;28;20103;-79
2021/04/28 03:27:20;;;;;;;486.85;251.57;;;;;;;;;;5050242;28;20021;-78
2021/04/28 03:29:46;;;;;;;490.20;257.63;;;;;;;;;;5065673;28;20523;-78
2021/04/28 03:32:13;;;;;;;492.42;261.60;;;;;;;;;;5047850;28;20124;-79
2021/04/28 03:34:39;;;;;;;493.75;259.70;;;;;;;;;;5049852;28;20021;-80
2021/04/28 03:37:05;;;;;;;497.58;263.88;;;;;;;;;;5050450;28;20354;-78
2021/04/28 03:39:32;;;;;;;492.30;258.75;;;;;;;;;;5049164;28;20029;-78
2021/04/28 03:41:58;;;;;;;488.63;252.07;;;;;;;;;;5048878;28;20071;-78
2021/04/28 03:44:24;;;;;;;496.27;245.00;;;;;;;;;;5048042;28;20032;-78
2021/04/28 03:46:50;;;;;;;493.02;256.17;;;;;;;;;;5049299;28;20136;-78
2021/04/28 03:49:16;;;;;;;488.75;251.88;;;;;;;;;;5047645;28;20057;-78
2021/04/28 03:51:43;;;;;;;493.42;252.70;;;;;;;;;;5048942;28;20048;-77
2021/04/28 03:54:09;;;;;;;505.70;262.17;;;;;;;;;;5049035;28;20021;-78
2021/04/28 03:56:35;;;;;;;485.15;251.23;;;;;;;;;;5065848;28;20028;-79
2021/04/28 03:59:01;;;;;;;486.15;247.05;;;;;;;;;;5046610;28;20359;-78
2021/04/28 04:01:27;;;;;;;486.05;249.68;;;;;;;;;;5049674;28;20028;-77
2021/04/28 04:03:53;;;;;;;492.30;256.80;;;;;;;;;;5048663;28;20045;-79
2021/04/28 04:06:19;;;;;;;490.77;253.45;;;;;;;;;;5049198;28;20124;-77
2021/04/28 04:08:45;;;;;;;494.73;257.00;;;;;;;;;;5047325;28;20041;-78
2021/04/28 04:11:11;;;;;;;498.65;255.27;;;;;;;;;;5045197;28;20057;-78
2021/04/28 04:13:37;;;;;;;487.13;247.80;;;;;;;;;;5048625;28;20025;-78
2021/04/28 04:16:03;;;;;;;495.75;262.42;;;;;;;;;;5049215;28;20041;-77
2021/04/28 04:18:29;;;;;;;490.40;246.00;;;;;;;;;;5050673;28;20036;-78
2021/04/28 04:20:55;;;;;;;493.17;254.38;;;;;;;;;;5051260;28;20024;-80
2021/04/28 04:23:21;;;;;;;497.50;254.77;;;;;;;;;;5065869;28;20490;-78
2021/04/28 04:25:47;;;;;;;500.05;258.17;;;;;;;;;;5064828;28;20037;-78
2021/04/28 04:28:13;;;;;;;501.95;257.30;;;;;;;;;;5050123;28;20347;-79
2021/04/28 04:30:39;;;;;;;504.08;254.10;;;;;;;;;;5051367;28;20349;-78
2021/04/28 04:33:05;;;;;;;501.30;258.40;;;;;;;;;;5051420;28;20036;-79
2021/04/28 04:35:31;;;;;;;492.33;245.60;;;;;;;;;;5050632;28;20032;-78
2021/04/28 04:37:57;;;;;;;501.27;250.40;;;;;;;;;;5050019;28;20044;-78
2021/04/28 04:40:23;;;;;;;500.35;246.85;;;;;;;;;;5046630;28;20029;-78
2021/04/28 04:42:49;;;;;;;504.02;253.95;;;;;;;;;;5047625;28;20058;-78
2021/04/28 04:45:15;;;;;;;500.70;241.27;;;;;;;;;;5049706;28;20470;-78
2021/04/28 04:47:41;;;;;;;504.63;256.95;;;;;;;;;;5046746;28;20017;-78
2021/04/28 04:50:08;;;;;;;505.70;257.73;;;;;;;;;;5045264;28;20069;-78
2021/04/28 04:52:34;;;;;;;503.83;257.33;;;;;;;;;;5048236;28;20025;-79
2021/04/28 04:55:00;;;;;;;507.80;251.63;;;;;;;;;;5044419;28;20039;-78
2021/04/28 04:57:29;;;;;;;499.63;251.05;;;;;;;;;;5049466;28;20530;-79
2021/04/28 04:59:55;;;;;;;503.63;246.98;;;;;;;;;;5044808;28;20052;-79
2021/04/28 05:02:21;;;;;;;508.23;254.10;;;;;;;;;;5047610;28;20033;-79
2021/04/28 05:04:47;;;;;;;500.70;244.45;;;;;;;;;;5047997;28;20033;-79
2021/04/28 05:07:13;;;;;;;506.25;258.30;;;;;;;;;;5047682;28;20032;-79
2021/04/28 05:09:39;;;;;;;517.20;261.15;;;;;;;;;;5045892;28;20051;-79
2021/04/28 05:12:05;;;;;;;504.27;253.88;;;;;;;;;;5047431;28;20048;-79
2021/04/28 05:14:31;;;;;;;495.35;243.73;;;;;;;;;;5045912;28;20029;-79
2021/04/28 05:16:57;;;;;;;499.17;256.33;;;;;;;;;;5046184;28;20039;-81
2021/04/28 05:19:23;;;;;;;497.17;252.35;;;;;;;;;;5046969;28;20059;-80
2021/04/28 05:21:49;;;;;;;494.70;249.93;;;;;;;;;;5046776;28;20368;-79
2021/04/28 05:24:15;;;;;;;493.52;252.63;;;;;;;;;;5047255;28;20538;-79
2021/04/28 05:26:41;;;;;;;491.02;251.82;;;;;;;;;;5047396;28;20029;-79
2021/04/28 05:29:07;;;;;;;494.10;254.98;;;;;;;;;;5045638;28;20044;-78
2021/04/28 05:31:33;;;;;;;498.98;256.52;;;;;;;;;;5045377;28;20021;-77
2021/04/28 05:34:00;;;;;;;498.02;262.05;;;;;;;;;;5047631;28;20079;-77
2021/04/28 05:36:26;;;;;;;500.88;263.60;;;;;;;;;;5044820;28;20032;-77
2021/04/28 05:38:59;;;;;;;495.52;257.27;;;;;;;;;;5043853;28;20359;-78
2021/04/28 05:41:24;;;;;;;498.05;264.33;;;;;;;;;;5041952;28;20028;-77
2021/04/28 05:43:50;;;;;;;500.08;260.20;;;;;;;;;;5045371;28;20112;-79
2021/04/28 05:46:16;;;;;;;500.45;268.05;;;;;;;;;;5042526;28;20032;-79
2021/04/28 05:48:42;;;;;;;500.20;269.23;;;;;;;;;;5050237;28;20059;-79
2021/04/28 05:51:08;;;;;;;505.33;278.27;;;;;;;;;;5049953;28;20040;-78
2021/04/28 05:53:34;;;;;;;497.40;269.77;;;;;;;;;;5048816;28;20032;-79
2021/04/28 05:56:04;;;;;;;492.88;258.48;;;;;;;;;;5050578;28;20129;-78
2021/04/28 05:58:30;;;;;;;518.83;276.17;;;;;;;;;;5067168;28;20119;-79
2021/04/28 06:00:56;;;;;;;504.20;275.52;;;;;;;;;;5065464;28;20033;-77
2021/04/28 06:03:22;;;;;;;502.30;266.83;;;;;;;;;;5049487;28;20140;-77
2021/04/28 06:05:48;;;;;;;505.38;282.90;;;;;;;;;;5049382;28;20033;-76
2021/04/28 06:08:14;;;;;;;508.05;289.30;;;;;;;;;;5065559;28;20371;-76
2021/04/28 06:10:41;;;;;;;505.92;280.60;;;;;;;;;;5050198;28;20028;-76
2021/04/28 06:13:07;;;;;;;504.95;283.73;;;;;;;;;;5047002;28;20032;-76
2021/04/28 06:15:33;;;;;;;505.45;281.90;;;;;;;;;;5049926;28;20024;-77
2021/04/28 06:17:59;;;;;;;509.92;286.33;;;;;;;;;;5049283;28;20025;-77
2021/04/28 06:20:25;;;;;;;511.95;293.45;;;;;;;;;;5049213;28;20029;-76
2021/04/28 06:22:51;;;;;;;506.30;283.15;;;;;;;;;;5049836;28;20411;-76
2021/04/28 06:25:17;;;;;;;502.95;275.08;;;;;;;;;;5050197;28;20171;-76
2021/04/28 06:27:43;;;;;;;509.02;285.15;;;;;;;;;;5048024;28;20024;-77
2021/04/28 06:30:10;;;;;;;514.15;288.77;;;;;;;;;;5063052;28;20044;-77
2021/04/28 06:32:36;;;;;;;507.75;284.38;;;;;;;;;;5048420;28;20039;-76
2021/04/28 06:35:03;;;;;;;512.83;297.20;;;;;;;;;;5047566;28;20461;-75
2021/04/28 06:37:29;;;;;;;513.80;298.42;;;;;;;;;;5049345;28;20450;-76
2021/04/28 06:39:55;;;;;;;512.85;292.83;;;;;;;;;;5049523;28;20029;-76
2021/04/28 06:42:21;;;;;;;513.13;303.60;;;;;;;;;;5049975;28;20040;-77
2021/04/28 06:44:47;;;;;;;513.33;301.52;;;;;;;;;;5046535;28;20037;-76
2021/04/28 06:47:14;;;;;;;521.67;308.08;;;;;;;;;;5048465;28;20107;-77
2021/04/28 06:49:40;;;;;;;513.08;305.00;;;;;;;;;;5048632;28;20090;-77
2021/04/28 06:52:06;;;;;;;511.20;301.00;;;;;;;;;;5049825;28;20558;-78
2021/04/28 06:54:32;;;;;;;512.42;305.25;;;;;;;;;;5048786;28;20029;-77
2021/04/28 06:56:58;;;;;;;517.25;306.42;;;;;;;;;;5049451;28;20095;-77
2021/04/28 06:59:24;;;;;;;521.05;313.23;;;;;;;;;;5063056;28;20454;-77
2021/04/28 07:01:52;;;;;;;518.35;311.67;;;;;;;;;;5050040;28;20066;-76
2021/04/28 07:04:19;;;;;;;525.30;317.38;;;;;;;;;;5045793;28;20036;-78
2021/04/28 07:06:45;;;;;;;515.08;314.77;;;;;;;;;;5049083;28;20394;-78
2021/04/28 07:09:11;;;;;;;518.88;315.08;;;;;;;;;;5047395;28;20581;-77
2021/04/28 07:11:37;;;;;;;514.97;314.63;;;;;;;;;;5064777;28;20108;-77
2021/04/28 07:14:03;;;;;;;514.47;318.17;;;;;;;;;;5048620;28;20047;-77
2021/04/28 07:16:29;;;;;;;516.47;321.52;;;;;;;;;;5041390;28;20052;-78
2021/04/28 07:18:55;;;;;;;511.52;314.55;;;;;;;;;;5030893;28;20038;-78
2021/04/28 07:21:21;;;;;;;515.75;318.63;;;;;;;;;;5060012;28;20025;-77
2021/04/28 07:23:47;;;;;;;517.20;322.17;;;;;;;;;;5063868;28;20413;-77
2021/04/28 07:26:13;;;;;;;518.22;319.63;;;;;;;;;;5049077;28;20123;-78
2021/04/28 07:28:39;;;;;;;512.67;313.23;;;;;;;;;;5048657;28;20044;-78
2021/04/28 07:31:06;;;;;;;518.67;325.30;;;;;;;;;;5049436;28;20033;-78
2021/04/28 07:33:31;;;;;;;515.70;324.65;;;;;;;;;;5047864;28;20111;-79
2021/04/28 07:35:58;;;;;;;523.15;331.00;;;;;;;;;;5048467;28;20171;-77
2021/04/28 07:38:23;;;;;;;521.22;327.35;;;;;;;;;;5048082;28;20033;-77
2021/04/28 07:40:50;;;;;;;527.28;330.75;;;;;;;;;;5048779;28;20039;-78
2021/04/28 07:43:16;;;;;;;528.78;337.42;;;;;;;;;;5048611;28;20049;-77
2021/04/28 07:45:42;;;;;;;528.63;342.35;;;;;;;;;;5048655;28;20044;-77
2021/04/28 07:48:09;;;;;;;539.15;351.30;;;;;;;;;;5047329;28;20514;-78
2021/04/28 07:50:39;;;;;;;536.30;349.05;;;;;;;;;;5065144;28;20098;-78
2021/04/28 07:53:05;;;;;;;560.13;371.48;;;;;;;;;;5047185;28;20028;-78
2021/04/28 07:55:32;;;;;;;531.15;359.08;;;;;;;;;;5048584;28;20021;-77
2021/04/28 07:57:59;;;;;;;530.22;356.65;;;;;;;;;;5047374;28;20565;-77
2021/04/28 08:00:28;;;;;;;530.65;355.15;;;;;;;;;;5047916;28;20074;-78
2021/04/28 08:02:54;;;;;;;554.97;363.83;;;;;;;;;;5045205;28;20043;-78
2021/04/28 08:05:20;;;;;;;536.78;365.92;;;;;;;;;;5051631;28;20029;-78
2021/04/28 08:07:46;;;;;;;537.63;369.95;;;;;;;;;;5051585;28;20041;-78
2021/04/28 08:10:12;;;;;;;534.80;365.38;;;;;;;;;;5050886;28;20041;-78
2021/04/28 08:12:39;;;;;;;537.30;376.17;;;;;;;;;;5063173;28;20021;-78
2021/04/28 08:15:06;;;;;;;539.60;376.48;;;;;;;;;;5050905;28;20025;-79
2021/04/28 08:17:32;;;;;;;535.63;382.52;;;;;;;;;;5047687;28;20710;-79
2021/04/28 08:19:59;;;;;;;530.38;373.10;;;;;;;;;;5052489;28;20025;-79
2021/04/28 08:22:25;;;;;;;536.65;389.63;;;;;;;;;;5050422;28;20036;-78
2021/04/28 08:24:51;;;;;;;534.42;388.02;;;;;;;;;;5050659;28;20238;-77
2021/04/28 08:27:17;;;;;;;535.88;398.40;;;;;;;;;;5050054;28;20036;-78
2021/04/28 08:29:43;;;;;;;532.42;397.67;;;;;;;;;;5051388;28;20112;-78
2021/04/28 08:32:09;;;;;;;537.38;415.52;;;;;;;;;;5051931;28;20025;-78
2021/04/28 08:34:35;;;;;;;544.00;423.15;;;;;;;;;;5047225;28;20021;-77
2021/04/28 08:37:01;;;;;;;535.92;420.92;;;;;;;;;;5051663;28;20040;-78
2021/04/28 08:39:27;;;;;;;531.30;411.02;;;;;;;;;;5051515;28;20021;-78
2021/04/28 08:41:53;;;;;;;534.25;421.67;;;;;;;;;;5051965;28;20351;-78
2021/04/28 08:44:19;;;;;;;537.70;417.20;;;;;;;;;;5047286;28;20116;-78
2021/04/28 08:46:46;;;;;;;534.28;412.40;;;;;;;;;;5040986;28;20033;-78
2021/04/28 08:49:12;;;;;;;537.28;414.48;;;;;;;;;;5045888;28;20050;-77
2021/04/28 08:51:38;;;;;;;536.45;414.20;;;;;;;;;;5047866;28;20033;-78
2021/04/28 08:54:05;;;;;;;537.08;419.42;;;;;;;;;;5050600;28;20081;-78
2021/04/28 08:56:31;;;;;;;544.10;428.27;;;;;;;;;;5040562;28;20029;-78
2021/04/28 08:58:58;;;;;;;536.70;413.48;;;;;;;;;;5040722;28;20147;-78
2021/04/28 09:01:32;;;;;;;545.72;430.25;;;;;;;;;;5049399;28;20047;-78
2021/04/28 09:03:59;;;;;;;547.45;433.77;;;;;;;;;;5050174;28;20466;-77
2021/04/28 09:06:30;;;;;;;549.58;437.75;;;;;;;;;;5050290;28;20021;-77
2021/04/28 09:08:57;;;;;;;552.33;447.42;;;;;;;;;;5049136;28;20833;-78
2021/04/28 09:11:52;;;;;;;547.78;442.58;;;;;;;;;;5051300;28;20025;-78
2021/04/28 09:14:20;;;;;;;556.35;447.00;;;;;;;;;;5038675;28;20116;-79
2021/04/28 09:17:07;;;;;;;547.05;447.67;;;;;;;;;;5046044;28;20033;-75
2021/04/28 09:19:39;;;;;;;547.45;448.67;;;;;;;;;;5042282;28;20025;-79
2021/04/28 09:22:07;;;;;;;565.25;484.83;;;;;;;;;;5051223;28;20082;-77
2021/04/28 09:24:34;;;;;;;563.63;499.00;;;;;;;;;;5049306;28;20439;-78
2021/04/28 09:27:00;;;;;;;594.78;530.25;;;;;;;;;;5049974;28;20021;-78
2021/04/28 09:29:30;;;;;;;609.92;544.58;;;;;;;;;;5039332;28;20333;-78
2021/04/28 09:31:59;;;;;;;641.55;573.10;;;;;;;;;;5050702;28;20040;-78
2021/04/28 09:34:30;;;;;;;605.03;538.47;;;;;;;;;;5048685;28;20029;-77
2021/04/28 09:37:00;;;;;;;629.28;560.22;;;;;;;;;;5050808;28;20013;-78
2021/04/28 09:39:26;;;;;;;;;;;;;;;;;;5051781;28;20108;-78
2021/04/28 09:41:57;;;;;;;617.20;545.58;;;;;;;;;;5051452;28;20059;-78
2021/04/28 09:44:28;;;;;;;630.65;562.30;;;;;;;;;;5052397;28;20034;-78
2021/04/28 09:46:55;;;;;;;577.85;515.53;;;;;;;;;;5043699;28;20292;-79
2021/04/28 09:49:21;;;;;;;581.38;519.08;;;;;;;;;;5051152;28;20455;-78
2021/04/28 09:51:53;;;;;;;574.28;511.70;;;;;;;;;;5052001;28;20029;-77
2021/04/28 09:54:19;;;;;;;559.20;497.52;;;;;;;;;;5052411;28;20087;-78
2021/04/28 09:56:45;;;;;;;550.60;479.92;;;;;;;;;;5056257;28;20441;-79
2021/04/28 09:59:11;;;;;;;548.95;474.25;;;;;;;;;;5050566;28;20044;-78
2021/04/28 10:01:41;;;;;;;553.30;491.73;;;;;;;;;;5043493;28;20436;-79
2021/04/28 10:04:08;;;;;;;592.25;528.38;;;;;;;;;;5049522;28;20032;-78
2021/04/28 10:06:48;;;;;;;574.55;513.33;;;;;;;;;;5047583;28;20052;-79
2021/04/28 10:09:14;;;;;;;;;;;;;;;;;;5044222;28;20061;-79
2021/04/28 10:11:40;;;;;;;576.90;514.95;;;;;;;;;;5066939;28;20444;-78
2021/04/28 10:14:06;;;;;;;597.58;535.90;;;;;;;;;;5047117;28;20423;-78
2021/04/28 10:16:32;;;;;;;587.60;527.28;;;;;;;;;;5049943;28;20100;-78
2021/04/28 10:18:58;;;;;;;601.03;539.47;;;;;;;;;;5044973;28;20041;-78
2021/04/28 10:21:24;;;;;;;591.25;529.88;;;;;;;;;;5061820;28;20040;-78
2021/04/28 10:23:51;;;;;;;608.22;545.67;;;;;;;;;;5049699;28;20021;-77
2021/04/28 10:26:17;;;;;;;641.45;576.85;;;;;;;;;;5049681;28;20025;-79
2021/04/28 10:28:43;;;;;;;631.10;568.72;;;;;;;;;;5047273;28;20428;-77
2021/04/28 10:31:09;;;;;;;629.72;567.88;;;;;;;;;;5049908;28;20037;-78
2021/04/28 10:33:35;;;;;;;612.67;551.03;;;;;;;;;;5049675;28;20029;-77
2021/04/28 10:36:05;;;;;;;575.75;514.85;;;;;;;;;;5049567;28;20035;-78
2021/04/28 10:38:31;;;;;;;600.35;535.60;;;;;;;;;;5049433;28;20443;-78
2021/04/28 10:40:58;;;;;;;568.95;506.33;;;;;;;;;;5049260;28;20035;-77
2021/04/28 10:43:39;;;;;;;566.88;504.15;;;;;;;;;;5066031;28;20017;-77
2021/04/28 10:46:21;;;;;;;563.85;498.10;;;;;;;;;;5049436;28;20447;-78
2021/04/28 10:48:47;;;;;;;558.70;486.27;;;;;;;;;;5048770;28;20041;-76
2021/04/28 10:51:34;;;;;;;555.88;477.85;;;;;;;;;;5049361;28;20066;-78
2021/04/28 10:54:19;;;;;;;559.00;483.88;;;;;;;;;;5050213;28;20021;-77
2021/04/28 10:57:11;;;;;;;591.42;527.03;;;;;;;;;;5047628;28;20347;-78
2021/04/28 10:59:38;;;;;;;581.72;519.65;;;;;;;;;;5044648;28;20029;-79
2021/04/28 11:02:04;;;;;;;582.67;520.72;;;;;;;;;;5049376;28;20477;-79
2021/04/28 11:04:32;;;;;;;580.80;518.83;;;;;;;;;;5048208;28;20023;-77
2021/04/28 11:06:58;;;;;;;583.67;521.55;;;;;;;;;;5049267;28;20066;-78
2021/04/28 11:09:26;;;;;;;564.17;502.27;;;;;;;;;;5047495;28;20132;-79
2021/04/28 11:11:53;;;;;;;548.50;484.20;;;;;;;;;;5048756;28;20021;-78
2021/04/28 11:14:21;;;;;;;547.10;481.98;;;;;;;;;;5049643;28;20032;-79
2021/04/28 11:16:48;;;;;;;547.60;485.27;;;;;;;;;;5048780;28;20098;-78
2021/04/28 11:19:14;;;;;;;571.25;509.17;;;;;;;;;;5047267;28;20032;-79
2021/04/28 11:21:40;;;;;;;600.17;537.25;;;;;;;;;;5049026;28;20470;-80
2021/04/28 11:24:16;;;;;;;601.65;539.47;;;;;;;;;;5049754;28;20025;-79
2021/04/28 11:26:45;;;;;;;584.20;522.95;;;;;;;;;;5048351;28;20017;-79
2021/04/28 11:29:11;;;;;;;608.63;545.35;;;;;;;;;;5046408;28;20040;-82
2021/04/28 11:31:42;;;;;;;634.83;570.75;;;;;;;;;;5065893;28;20035;-78
2021/04/28 11:34:17;;;;;;;635.20;571.75;;;;;;;;;;5056909;28;20130;-78
2021/04/28 11:36:49;;;;;;;616.17;553.67;;;;;;;;;;5039850;28;20448;-79
2021/04/28 11:39:32;;;;;;;621.20;558.15;;;;;;;;;;5054046;28;20028;-77
2021/04/28 11:42:18;;;;;;;747.65;676.42;;;;;;;;;;5050163;28;20017;-78
2021/04/28 11:44:54;;;;;;;643.25;580.97;;;;;;;;;;5050532;28;20382;-77
2021/04/28 11:47:24;;;;;;;669.65;605.97;;;;;;;;;;5063401;28;20172;-78
2021/04/28 11:49:52;;;;;;;675.15;611.65;;;;;;;;;;5051592;28;20119;-78
2021/04/28 11:52:19;;;;;;;667.95;604.78;;;;;;;;;;5046726;28;20044;-76
2021/04/28 11:54:52;;;;;;;664.15;601.28;;;;;;;;;;5047142;28;20115;-79
2021/04/28 11:57:26;;;;;;;652.22;589.70;;;;;;;;;;5050297;28;20057;-77
2021/04/28 12:00:01;;;;;;;616.45;554.65;;;;;;;;;;5053581;28;20120;-77
2021/04/28 12:02:27;;;;;;;592.70;530.90;;;;;;;;;;5053190;28;20117;-77
2021/04/28 12:04:53;;;;;;;584.33;522.28;;;;;;;;;;5047323;28;20469;-77
2021/04/28 12:07:20;;;;;;;586.55;524.05;;;;;;;;;;5072905;28;20013;-78
2021/04/28 12:09:47;;;;;;;578.90;516.67;;;;;;;;;;5050438;28;20040;-77
2021/04/28 12:12:20;;;;;;;573.42;511.55;;;;;;;;;;5051773;28;20029;-77
2021/04/28 12:14:51;;;;;;;576.30;513.95;;;;;;;;;;5059752;28;20032;-79
2021/04/28 12:17:17;;;;;;;592.85;529.28;;;;;;;;;;5067786;28;20028;-77
2021/04/28 12:19:44;;;;;;;640.05;576.10;;;;;;;;;;5046045;28;20025;-78
2021/04/28 12:22:10;;;;;;;652.13;589.45;;;;;;;;;;5043985;28;20028;-77
2021/04/28 12:24:38;;;;;;;675.15;612.33;;;;;;;;;;5045744;28;20036;-77
2021/04/28 12:27:15;;;;;;;680.85;618.25;;;;;;;;;;5047675;28;20033;-77
2021/04/28 12:29:43;;;;;;;681.03;618.10;;;;;;;;;;5042814;28;20110;-78
2021/04/28 12:32:10;;;;;;;675.05;612.60;;;;;;;;;;5053277;28;20021;-78
2021/04/28 12:34:37;;;;;;;668.50;605.70;;;;;;;;;;5048931;28;20017;-78
2021/04/28 12:37:15;;;;;;;653.00;590.72;;;;;;;;;;5050271;28;20355;-78
2021/04/28 12:39:41;;;;;;;631.50;570.13;;;;;;;;;;5049147;28;20032;-77
2021/04/28 12:42:07;;;;;;;640.83;578.72;;;;;;;;;;5062414;28;20048;-78
2021/04/28 12:44:36;;;;;;;641.97;579.90;;;;;;;;;;5045446;28;20033;-77
2021/04/28 12:47:03;;;;;;;630.37;568.03;;;;;;;;;;5049040;28;20036;-78
2021/04/28 12:49:29;;;;;;;605.88;544.47;;;;;;;;;;5063354;28;20111;-78
2021/04/28 12:51:58;;;;;;;588.35;527.38;;;;;;;;;;5046639;28;20052;-77
2021/04/28 12:54:29;;;;;;;573.65;512.67;;;;;;;;;;5045611;28;20025;-76
2021/04/28 12:56:57;;;;;;;575.35;514.00;;;;;;;;;;5044713;28;20057;-77
2021/04/28 12:59:23;;;;;;;566.95;505.45;;;;;;;;;;5044318;28;20059;-76
2021/04/28 13:02:04;;;;;;;570.08;508.05;;;;;;;;;;5045491;28;20025;-77
2021/04/28 13:04:30;;;;;;;577.78;516.25;;;;;;;;;;5041145;28;20024;-76
2021/04/28 13:07:15;;;;;;;594.05;531.95;;;;;;;;;;5053329;28;20040;-77
2021/04/28 13:09:41;;;;;;;599.47;537.30;;;;;;;;;;5053799;28;20040;-77
2021/04/28 13:12:08;;;;;;;607.42;545.45;;;;;;;;;;5066850;28;20029;-78
2021/04/28 13:14:47;;;;;;;615.17;553.45;;;;;;;;;;5049490;28;20082;-79
2021/04/28 13:17:13;;;;;;;649.20;585.30;;;;;;;;;;5068760;28;20029;-77
2021/04/28 13:19:40;;;;;;;625.47;563.92;;;;;;;;;;5049828;28;20025;-78
2021/04/28 13:22:15;;;;;;;620.90;559.15;;;;;;;;;;5049535;28;20032;-78
2021/04/28 13:24:51;;;;;;;625.08;563.03;;;;;;;;;;5051298;28;20781;-79
2021/04/28 13:27:27;;;;;;;623.90;562.03;;;;;;;;;;5065932;28;20708;-79
2021/04/28 13:30:00;;;;;;;616.55;554.90;;;;;;;;;;5051369;28;20501;-78
2021/04/28 13:32:37;;;;;;;603.72;542.35;;;;;;;;;;5047475;28;20037;-78
2021/04/28 13:35:21;;;;;;;604.00;541.95;;;;;;;;;;5045974;28;20029;-78
2021/04/28 13:37:57;;;;;;;607.97;546.13;;;;;;;;;;5065565;28;20021;-77
2021/04/28 13:40:24;;;;;;;611.83;549.40;;;;;;;;;;5059767;28;20087;-75
2021/04/28 13:42:50;;;;;;;598.38;537.20;;;;;;;;;;5055730;28;20067;-75
2021/04/28 13:45:17;;;;;;;606.38;544.45;;;;;;;;;;5047856;28;20028;-76
2021/04/28 13:47:43;;;;;;;598.05;536.08;;;;;;;;;;5046217;28;20036;-75
2021/04/28 13:50:09;;;;;;;590.05;528.45;;;;;;;;;;5050185;28;20642;-75
2021/04/28 13:52:36;;;;;;;579.22;517.45;;;;;;;;;;5051088;28;20040;-75
2021/04/28 13:55:02;;;;;;;578.05;516.42;;;;;;;;;;5048820;28;20405;-75
2021/04/28 13:57:28;;;;;;;577.80;515.67;;;;;;;;;;5046230;28;20037;-74